Advance, MO (63730)

4:53 PM CDT on August 31, 2016 (GMT -0500)
Flat land S of Benton | | Change Station

Elev 335 ft 37.05 °N, 89.55 °W | Updated 10 minutes ago

Clear
Clear
92.8 °F
Feels Like 100 °F
N
2.2
Wind Variable Wind from West

Today
High -- | Low -- °F
--% Chance of Precip.
Yesterday
High -- | Low -- °F
Precip. -- in
Pressure 29.95 in
Visibility 10.0 miles
Clouds Clear
Heat Index 100 °F
Dew Point 71 °F
Humidity 50%
Rainfall 0.00 in
Snow Depth Not available.
6:29 AM 7:28 PM
Waning Crescent, 0% visible
METAR KCGI 312053Z 34010KT 10SM CLR 32/20 A2996 RMK AO2 SLP140 T03170200 58017
Pressure 29.95 in
Visibility 10.0 miles
Clouds Clear
Heat Index 100 °F
Dew Point 71 °F
Humidity 50%
Rainfall 0.00 in
Snow Depth Not available.
6:29 AM 7:28 PM
Waning Crescent, 0% visible
METAR KCGI 312053Z 34010KT 10SM CLR 32/20 A2996 RMK AO2 SLP140 T03170200 58017

10-Day Weather Forecast

Almanac

Astronomy

Aug. 31, 2016 Rise Set
Actual Time
Civil Twilight
Nautical Twilight
Astronomical Twilight
Moon
Length of Visible Light
Length of Day
Tomorrow will be .
, % of the Moon is Illuminated

Today's Extremes

State Highs State Lows

Community

WunderPhotos

Upload Photos

1,936,189 photos uploaded!

WunderBlog® & News

Nearby

Air Quality

  Air Quality AQ Index Pollutant
Not available.

Snow Depth

Station Depth Elevation

Earthquake Activity

City Distance Mag. Time & Date
Minimum magnitude displayed is 2.5.

Coastal Water Temperatures

Place Temperature

Stations

Nearby Weather Stations

Station Location Temp. Windchill Dew Point Humidity Wind Precip. Elev Updated Type
                   

Watches & Warnings

There are currently no watches in effect.